Planet Ace — 3EYF9 — position and weather

sailwx.info

Track history (hours):
 
Tides and Currents Weather Stations Pressure Air Temp Water Temp Dewpoint Dewpoint Depression Visibility Wind Speed Wind Dir Waves Ship Positions

Planet Ace

Last reported at 2016-Sep-29 08:33 UTC. Time now 2016-Sep-29 13:35 UTC.
Position N 52°41' E 002°03'.

Length 188 m; beam 28.2 m.

Type: Cargo ship. MMSI: 352168000.

Date/timePositionNaut miles runAvg speedWind from/ knotsBaromVisibWave heightAir tempDewpointWater temp
2016-Sep-29 08:33N 52°41' E 002°03'1616.5
2016-Sep-29 07:33N 52°52' E 001°43'17024.2
2016-Sep-29 00:33N 55°01' W 001°25'7 2.2
2016-Sep-28 21:33N 54°58' W 001°15'8 3.8
2016-Sep-28 19:34N 54°59' W 001°28'0 0.0
2016-Sep-28 16:34N 54°59' W 001°28'0 0.0
2016-Sep-28 15:34N 54°59' W 001°28'0 0.0
2016-Sep-28 12:34N 54°59' W 001°28'0 0.0
2016-Sep-28 08:34N 54°59' W 001°28'0 0.0
2016-Sep-28 03:34N 54°59' W 001°28'0 0.0
2016-Sep-28 02:34N 54°59' W 001°28'0 0.0
2016-Sep-28 01:34N 54°59' W 001°28'0 0.0
2016-Sep-27 23:34N 54°59' W 001°28'0 0.0
2016-Sep-27 19:29N 54°59' W 001°28'0 0.0
2016-Sep-27 14:30N 54°59' W 001°28'0 0.0
2016-Sep-27 13:32N 54°59' W 001°28'0 0.0
2016-Sep-27 10:33N 54°59' W 001°28'27027.0
2016-Sep-27 00:33N 52°25' E 004°47'27067.5
2016-Sep-26 20:33N 54°59' W 001°28'0 0.0
2016-Sep-26 19:33N 54°59' W 001°28'0 0.0
2016-Sep-26 15:33N 54°59' W 001°28'0 0.0
2016-Sep-26 13:32N 54°59' W 001°28'0 0.0
2016-Sep-26 11:33N 54°59' W 001°28'0 0.0
2016-Sep-26 08:33N 54°59' W 001°28'0 0.0
2016-Sep-26 02:33N 54°59' W 001°28'0 0.0
2016-Sep-26 01:33N 54°59' W 001°28'0 0.0
2016-Sep-26 00:33N 54°59' W 001°28'0 0.0
2016-Sep-25 21:33N 54°59' W 001°28'0 0.0
2016-Sep-25 17:33N 54°59' W 001°28'0 0.0
2016-Sep-25 16:33N 54°59' W 001°28'0 0.0
2016-Sep-25 15:33N 54°59' W 001°28'0 0.0
2016-Sep-25 14:34N 54°59' W 001°28'0 0.0
2016-Sep-25 12:33N 54°59' W 001°28'0 0.0
2016-Sep-25 11:34N 54°59' W 001°28'0 0.0
2016-Sep-25 10:34N 54°59' W 001°28'0 0.0
2016-Sep-25 09:34N 54°59' W 001°28'0 0.0
2016-Sep-25 07:34N 54°59' W 001°28'0 0.0
2016-Sep-25 04:34N 54°59' W 001°28'0 0.0
2016-Sep-25 00:34N 54°59' W 001°28'0 0.0
2016-Sep-24 22:34N 54°59' W 001°28'0 0.0
2016-Sep-24 21:34N 54°59' W 001°28'0 0.0
2016-Sep-24 19:34N 54°59' W 001°28'0 0.0
2016-Sep-24 18:34N 54°59' W 001°28'0 0.0
2016-Sep-24 17:34N 54°59' W 001°28'0 0.0
2016-Sep-24 16:34N 54°59' W 001°28'0 0.0
2016-Sep-24 14:34N 54°59' W 001°28'0 0.0
2016-Sep-24 12:22N 54°59' W 001°28'0 0.0
2016-Sep-24 10:34N 54°59' W 001°28'0 0.0
2016-Sep-24 09:34N 54°59' W 001°28'0 0.0
2016-Sep-24 03:34N 54°59' W 001°28'0 0.0
2016-Sep-24 02:34N 54°59' W 001°28'0 0.0
2016-Sep-24 01:34N 54°59' W 001°28'0 0.0
2016-Sep-24 00:34N 54°59' W 001°28'0 0.0
2016-Sep-23 19:34N 54°59' W 001°28'0 0.0
2016-Sep-23 17:34N 54°59' W 001°28'0 0.3
2016-Sep-23 16:34N 54°59' W 001°27'0 0.0
2016-Sep-23 15:34N 54°59' W 001°27'0 0.0
2016-Sep-23 13:34N 54°59' W 001°27'0 0.0
2016-Sep-23 09:31N 54°59' W 001°27'0 0.0
2016-Sep-23 06:34N 54°59' W 001°27'0 0.0
2016-Sep-23 04:34N 54°59' W 001°27'0 0.0
2016-Sep-23 03:34N 54°59' W 001°27'0 0.0
2016-Sep-23 02:34N 54°59' W 001°27'0 0.0
2016-Sep-23 01:34N 54°59' W 001°27'0 0.0
2016-Sep-23 00:34N 54°59' W 001°27'0 0.0
2016-Sep-22 23:34N 54°59' W 001°27'0 0.1
2016-Sep-22 20:34N 54°59' W 001°27'46 5.7
2016-Sep-22 12:34N 54°32' W 000°24'12215.2
2016-Sep-22 04:33N 52°54' E 001°39'1716.8
2016-Sep-22 03:33N 52°43' E 002°01'4414.6
2016-Sep-22 00:34N 52°01' E 002°21'1413.8
2016-Sep-21 23:34N 51°49' E 002°30'1414.1
2016-Sep-21 22:34N 51°38' E 002°44'25 8.3
2016-Sep-21 19:31N 51°20' E 003°13'1 0.2
2016-Sep-21 16:33N 51°19' E 003°13'0 0.0
2016-Sep-21 09:33N 51°19' E 003°13'0 0.0
2016-Sep-21 08:33N 51°19' E 003°13'0 0.1
2016-Sep-21 05:33N 51°19' E 003°13'4 2.1
2016-Sep-21 03:33N 51°23' E 003°10'1010.0
2016-Sep-21 02:33N 51°25' E 002°54'12513.9
2016-Sep-20 17:33N 50°04' E 000°24'3712.3
2016-Sep-20 14:34N 49°29' E 000°07'2 2.1
2016-Sep-20 13:33N 49°29' E 000°10'1 0.3
2016-Sep-20 10:33N 49°28' E 000°12'0 0.0
2016-Sep-20 08:33N 49°28' E 000°12'0 0.0
2016-Sep-20 07:33N 49°28' E 000°12'0 0.0
2016-Sep-20 06:33N 49°28' E 000°12'0 0.0
2016-Sep-20 02:33N 49°28' E 000°12'0 0.0
2016-Sep-19 23:33N 49°28' E 000°12'0 0.0
2016-Sep-19 19:33N 49°28' E 000°12'0 0.0
2016-Sep-19 18:33N 49°28' E 000°12'0 0.0
2016-Sep-19 16:29N 49°28' E 000°12'0 0.0
2016-Sep-19 14:32N 49°28' E 000°12'0 0.0
2016-Sep-19 13:32N 49°28' E 000°12'0 0.0
2016-Sep-19 12:32N 49°28' E 000°12'0 0.0
2016-Sep-19 11:32N 49°28' E 000°12'1 0.5
2016-Sep-19 09:33N 49°29' E 000°10'  
Track history (hours):
 
Tides and Currents Weather Stations Pressure Air Temp Water Temp Dewpoint Dewpoint Depression Visibility Wind Speed Wind Dir Waves Ship Positions

Planet Ace

Last reported at 2016-Sep-29 08:33 UTC. Time now 2016-Sep-29 13:35 UTC.
Position N 52°41' E 002°03'.

Length 188 m; beam 28.2 m.

Type: Cargo ship. MMSI: 352168000.

Date/timePositionNaut miles runAvg speedWind from/ knotsBaromVisibWave heightAir tempDewpointWater temp
2016-Sep-29 08:33N 52°41' E 002°03'1616.5
2016-Sep-29 07:33N 52°52' E 001°43'17024.2
2016-Sep-29 00:33N 55°01' W 001°25'7 2.2
2016-Sep-28 21:33N 54°58' W 001°15'8 3.8
2016-Sep-28 19:34N 54°59' W 001°28'0 0.0
2016-Sep-28 16:34N 54°59' W 001°28'0 0.0
2016-Sep-28 15:34N 54°59' W 001°28'0 0.0
2016-Sep-28 12:34N 54°59' W 001°28'0 0.0
2016-Sep-28 08:34N 54°59' W 001°28'0 0.0
2016-Sep-28 03:34N 54°59' W 001°28'0 0.0
2016-Sep-28 02:34N 54°59' W 001°28'0 0.0
2016-Sep-28 01:34N 54°59' W 001°28'0 0.0
2016-Sep-27 23:34N 54°59' W 001°28'0 0.0
2016-Sep-27 19:29N 54°59' W 001°28'0 0.0
2016-Sep-27 14:30N 54°59' W 001°28'0 0.0
2016-Sep-27 13:32N 54°59' W 001°28'0 0.0
2016-Sep-27 10:33N 54°59' W 001°28'27027.0
2016-Sep-27 00:33N 52°25' E 004°47'27067.5
2016-Sep-26 20:33N 54°59' W 001°28'0 0.0
2016-Sep-26 19:33N 54°59' W 001°28'0 0.0
2016-Sep-26 15:33N 54°59' W 001°28'0 0.0
2016-Sep-26 13:32N 54°59' W 001°28'0 0.0
2016-Sep-26 11:33N 54°59' W 001°28'0 0.0
2016-Sep-26 08:33N 54°59' W 001°28'0 0.0
2016-Sep-26 02:33N 54°59' W 001°28'0 0.0
2016-Sep-26 01:33N 54°59' W 001°28'0 0.0
2016-Sep-26 00:33N 54°59' W 001°28'0 0.0
2016-Sep-25 21:33N 54°59' W 001°28'0 0.0
2016-Sep-25 17:33N 54°59' W 001°28'0 0.0
2016-Sep-25 16:33N 54°59' W 001°28'0 0.0
2016-Sep-25 15:33N 54°59' W 001°28'0 0.0
2016-Sep-25 14:34N 54°59' W 001°28'0 0.0
2016-Sep-25 12:33N 54°59' W 001°28'0 0.0
2016-Sep-25 11:34N 54°59' W 001°28'0 0.0
2016-Sep-25 10:34N 54°59' W 001°28'0 0.0
2016-Sep-25 09:34N 54°59' W 001°28'0 0.0
2016-Sep-25 07:34N 54°59' W 001°28'0 0.0
2016-Sep-25 04:34N 54°59' W 001°28'0 0.0
2016-Sep-25 00:34N 54°59' W 001°28'0 0.0
2016-Sep-24 22:34N 54°59' W 001°28'0 0.0
2016-Sep-24 21:34N 54°59' W 001°28'0 0.0
2016-Sep-24 19:34N 54°59' W 001°28'0 0.0
2016-Sep-24 18:34N 54°59' W 001°28'0 0.0
2016-Sep-24 17:34N 54°59' W 001°28'0 0.0
2016-Sep-24 16:34N 54°59' W 001°28'0 0.0
2016-Sep-24 14:34N 54°59' W 001°28'0 0.0
2016-Sep-24 12:22N 54°59' W 001°28'0 0.0
2016-Sep-24 10:34N 54°59' W 001°28'0 0.0
2016-Sep-24 09:34N 54°59' W 001°28'0 0.0
2016-Sep-24 03:34N 54°59' W 001°28'0 0.0
2016-Sep-24 02:34N 54°59' W 001°28'0 0.0
2016-Sep-24 01:34N 54°59' W 001°28'0 0.0
2016-Sep-24 00:34N 54°59' W 001°28'0 0.0
2016-Sep-23 19:34N 54°59' W 001°28'0 0.0
2016-Sep-23 17:34N 54°59' W 001°28'0 0.3
2016-Sep-23 16:34N 54°59' W 001°27'0 0.0
2016-Sep-23 15:34N 54°59' W 001°27'0 0.0
2016-Sep-23 13:34N 54°59' W 001°27'0 0.0
2016-Sep-23 09:31N 54°59' W 001°27'0 0.0
2016-Sep-23 06:34N 54°59' W 001°27'0 0.0
2016-Sep-23 04:34N 54°59' W 001°27'0 0.0
2016-Sep-23 03:34N 54°59' W 001°27'0 0.0
2016-Sep-23 02:34N 54°59' W 001°27'0 0.0
2016-Sep-23 01:34N 54°59' W 001°27'0 0.0
2016-Sep-23 00:34N 54°59' W 001°27'0 0.0
2016-Sep-22 23:34N 54°59' W 001°27'0 0.1
2016-Sep-22 20:34N 54°59' W 001°27'46 5.7
2016-Sep-22 12:34N 54°32' W 000°24'12215.2
2016-Sep-22 04:33N 52°54' E 001°39'1716.8
2016-Sep-22 03:33N 52°43' E 002°01'4414.6
2016-Sep-22 00:34N 52°01' E 002°21'1413.8
2016-Sep-21 23:34N 51°49' E 002°30'1414.1
2016-Sep-21 22:34N 51°38' E 002°44'25 8.3
2016-Sep-21 19:31N 51°20' E 003°13'1 0.2
2016-Sep-21 16:33N 51°19' E 003°13'0 0.0
2016-Sep-21 09:33N 51°19' E 003°13'0 0.0
2016-Sep-21 08:33N 51°19' E 003°13'0 0.1
2016-Sep-21 05:33N 51°19' E 003°13'4 2.1
2016-Sep-21 03:33N 51°23' E 003°10'1010.0
2016-Sep-21 02:33N 51°25' E 002°54'12513.9
2016-Sep-20 17:33N 50°04' E 000°24'3712.3
2016-Sep-20 14:34N 49°29' E 000°07'2 2.1
2016-Sep-20 13:33N 49°29' E 000°10'1 0.3
2016-Sep-20 10:33N 49°28' E 000°12'0 0.0
2016-Sep-20 08:33N 49°28' E 000°12'0 0.0
2016-Sep-20 07:33N 49°28' E 000°12'0 0.0
2016-Sep-20 06:33N 49°28' E 000°12'0 0.0
2016-Sep-20 02:33N 49°28' E 000°12'0 0.0
2016-Sep-19 23:33N 49°28' E 000°12'0 0.0
2016-Sep-19 19:33N 49°28' E 000°12'0 0.0
2016-Sep-19 18:33N 49°28' E 000°12'0 0.0
2016-Sep-19 16:29N 49°28' E 000°12'0 0.0
2016-Sep-19 14:32N 49°28' E 000°12'0 0.0
2016-Sep-19 13:32N 49°28' E 000°12'0 0.0
2016-Sep-19 12:32N 49°28' E 000°12'0 0.0
2016-Sep-19 11:32N 49°28' E 000°12'1 0.5
2016-Sep-19 09:33N 49°29' E 000°10'  

Dump ship's entire track history